sensor_id;sensor_type;location;lat;lon;timestamp;temperature;humidity
26035;DHT22;13809;48.632;11.576;2022-09-02T00:04:30;18.60;35.20
26035;DHT22;13809;48.632;11.576;2022-09-02T00:09:35;18.60;35.30
26035;DHT22;13809;48.632;11.576;2022-09-02T00:14:41;18.50;35.20
26035;DHT22;13809;48.632;11.576;2022-09-02T00:19:44;18.50;35.20
26035;DHT22;13809;48.632;11.576;2022-09-02T00:24:49;18.40;35.10
26035;DHT22;13809;48.632;11.576;2022-09-02T00:29:52;18.40;35.10
26035;DHT22;13809;48.632;11.576;2022-09-02T00:34:55;18.30;35.00
26035;DHT22;13809;48.632;11.576;2022-09-02T00:40:02;18.20;34.90
26035;DHT22;13809;48.632;11.576;2022-09-02T00:45:08;18.20;34.90
26035;DHT22;13809;48.632;11.576;2022-09-02T00:50:13;18.10;34.80
26035;DHT22;13809;48.632;11.576;2022-09-02T00:55:21;18.10;34.80
26035;DHT22;13809;48.632;11.576;2022-09-02T01:00:29;18.00;34.70
26035;DHT22;13809;48.632;11.576;2022-09-02T01:05:49;18.00;34.70
26035;DHT22;13809;48.632;11.576;2022-09-02T01:10:55;17.80;34.70
26035;DHT22;13809;48.632;11.576;2022-09-02T01:16:03;17.80;35.10
26035;DHT22;13809;48.632;11.576;2022-09-02T01:21:09;17.70;35.30
26035;DHT22;13809;48.632;11.576;2022-09-02T01:26:14;17.70;35.00
26035;DHT22;13809;48.632;11.576;2022-09-02T01:31:17;17.60;35.20
26035;DHT22;13809;48.632;11.576;2022-09-02T01:36:21;17.60;35.10
26035;DHT22;13809;48.632;11.576;2022-09-02T01:41:25;17.50;35.10
26035;DHT22;13809;48.632;11.576;2022-09-02T01:46:28;17.50;35.20
26035;DHT22;13809;48.632;11.576;2022-09-02T01:51:32;17.40;35.10
26035;DHT22;13809;48.632;11.576;2022-09-02T01:56:37;17.40;35.10
26035;DHT22;13809;48.632;11.576;2022-09-02T02:01:40;17.40;35.40
26035;DHT22;13809;48.632;11.576;2022-09-02T02:06:46;17.30;35.20
26035;DHT22;13809;48.632;11.576;2022-09-02T02:11:54;17.30;35.40
26035;DHT22;13809;48.632;11.576;2022-09-02T02:16:57;17.20;35.40
26035;DHT22;13809;48.632;11.576;2022-09-02T02:22:00;17.20;35.30
26035;DHT22;13809;48.632;11.576;2022-09-02T02:27:05;17.10;35.30
26035;DHT22;13809;48.632;11.576;2022-09-02T02:32:09;17.10;35.50
26035;DHT22;13809;48.632;11.576;2022-09-02T02:37:13;17.00;35.40
26035;DHT22;13809;48.632;11.576;2022-09-02T02:42:17;17.00;35.40
26035;DHT22;13809;48.632;11.576;2022-09-02T02:47:21;16.90;35.40
26035;DHT22;13809;48.632;11.576;2022-09-02T02:52:24;16.90;35.50
26035;DHT22;13809;48.632;11.576;2022-09-02T02:57:29;16.80;35.50
26035;DHT22;13809;48.632;11.576;2022-09-02T03:02:32;16.70;35.70
26035;DHT22;13809;48.632;11.576;2022-09-02T03:07:36;16.70;35.50
26035;DHT22;13809;48.632;11.576;2022-09-02T03:12:40;16.60;35.60
26035;DHT22;13809;48.632;11.576;2022-09-02T03:17:46;16.60;35.70
26035;DHT22;13809;48.632;11.576;2022-09-02T03:22:50;16.50;35.60
26035;DHT22;13809;48.632;11.576;2022-09-02T03:27:58;16.50;35.70
26035;DHT22;13809;48.632;11.576;2022-09-02T03:33:02;16.50;36.60
26035;DHT22;13809;48.632;11.576;2022-09-02T03:38:06;16.40;35.70
26035;DHT22;13809;48.632;11.576;2022-09-02T03:43:11;16.40;35.90
26035;DHT22;13809;48.632;11.576;2022-09-02T03:48:15;16.30;36.10
26035;DHT22;13809;48.632;11.576;2022-09-02T03:53:18;16.30;35.90
26035;DHT22;13809;48.632;11.576;2022-09-02T03:58:23;16.20;35.80
26035;DHT22;13809;48.632;11.576;2022-09-02T04:03:27;16.20;36.10
26035;DHT22;13809;48.632;11.576;2022-09-02T04:08:30;16.10;36.00
26035;DHT22;13809;48.632;11.576;2022-09-02T04:13:35;16.10;36.00
26035;DHT22;13809;48.632;11.576;2022-09-02T04:18:38;16.00;36.20
26035;DHT22;13809;48.632;11.576;2022-09-02T04:23:42;16.00;36.00
26035;DHT22;13809;48.632;11.576;2022-09-02T04:28:47;16.00;36.10
26035;DHT22;13809;48.632;11.576;2022-09-02T04:33:51;15.90;36.30
26035;DHT22;13809;48.632;11.576;2022-09-02T04:38:56;15.90;36.20
26035;DHT22;13809;48.632;11.576;2022-09-02T04:44:01;15.90;36.40
26035;DHT22;13809;48.632;11.576;2022-09-02T04:49:05;15.90;37.30
26035;DHT22;13809;48.632;11.576;2022-09-02T04:54:09;15.80;36.30
26035;DHT22;13809;48.632;11.576;2022-09-02T04:59:14;15.80;36.30
26035;DHT22;13809;48.632;11.576;2022-09-02T05:04:17;15.80;36.60
26035;DHT22;13809;48.632;11.576;2022-09-02T05:09:20;15.80;36.50
26035;DHT22;13809;48.632;11.576;2022-09-02T05:14:25;15.80;36.60
26035;DHT22;13809;48.632;11.576;2022-09-02T05:19:31;15.80;36.90
26035;DHT22;13809;48.632;11.576;2022-09-02T05:24:35;15.80;36.90
26035;DHT22;13809;48.632;11.576;2022-09-02T05:29:39;15.80;37.00
26035;DHT22;13809;48.632;11.576;2022-09-02T05:34:46;15.80;37.50
26035;DHT22;13809;48.632;11.576;2022-09-02T05:39:49;15.80;37.30
26035;DHT22;13809;48.632;11.576;2022-09-02T05:44:54;15.80;37.50
26035;DHT22;13809;48.632;11.576;2022-09-02T05:49:58;15.80;37.90
26035;DHT22;13809;48.632;11.576;2022-09-02T05:55:04;15.80;37.60
26035;DHT22;13809;48.632;11.576;2022-09-02T06:00:10;15.80;37.80
26035;DHT22;13809;48.632;11.576;2022-09-02T06:05:19;15.80;38.40
26035;DHT22;13809;48.632;11.576;2022-09-02T06:10:22;15.80;37.80
26035;DHT22;13809;48.632;11.576;2022-09-02T06:15:26;15.90;37.90
26035;DHT22;13809;48.632;11.576;2022-09-02T06:20:31;15.90;38.40
26035;DHT22;13809;48.632;11.576;2022-09-02T06:25:35;16.00;38.10
26035;DHT22;13809;48.632;11.576;2022-09-02T06:30:42;16.00;38.50
26035;DHT22;13809;48.632;11.576;2022-09-02T06:35:46;16.00;39.20
26035;DHT22;13809;48.632;11.576;2022-09-02T06:40:52;16.10;38.80
26035;DHT22;13809;48.632;11.576;2022-09-02T06:45:57;16.20;39.30
26035;DHT22;13809;48.632;11.576;2022-09-02T06:51:00;16.20;39.30
26035;DHT22;13809;48.632;11.576;2022-09-02T06:56:06;16.30;39.40
26035;DHT22;13809;48.632;11.576;2022-09-02T07:01:16;16.40;39.80
26035;DHT22;13809;48.632;11.576;2022-09-02T07:06:20;16.50;39.90
26035;DHT22;13809;48.632;11.576;2022-09-02T07:11:23;16.70;39.30
26035;DHT22;13809;48.632;11.576;2022-09-02T07:16:29;16.80;39.20
26035;DHT22;13809;48.632;11.576;2022-09-02T07:21:32;17.00;39.80
26035;DHT22;13809;48.632;11.576;2022-09-02T07:26:37;17.20;39.30
26035;DHT22;13809;48.632;11.576;2022-09-02T07:31:45;17.40;39.10
26035;DHT22;13809;48.632;11.576;2022-09-02T07:36:48;17.50;39.10
26035;DHT22;13809;48.632;11.576;2022-09-02T07:41:51;17.70;39.00
26035;DHT22;13809;48.632;11.576;2022-09-02T07:46:56;17.90;39.00
26035;DHT22;13809;48.632;11.576;2022-09-02T07:51:59;18.20;38.60
26035;DHT22;13809;48.632;11.576;2022-09-02T07:57:03;18.30;38.40
26035;DHT22;13809;48.632;11.576;2022-09-02T08:02:08;18.60;38.30
26035;DHT22;13809;48.632;11.576;2022-09-02T08:07:12;18.90;37.90
26035;DHT22;13809;48.632;11.576;2022-09-02T08:12:15;19.10;38.00
26035;DHT22;13809;48.632;11.576;2022-09-02T08:17:24;19.40;37.60
26035;DHT22;13809;48.632;11.576;2022-09-02T08:22:32;19.70;36.90
26035;DHT22;13809;48.632;11.576;2022-09-02T08:27:36;19.90;36.40
26035;DHT22;13809;48.632;11.576;2022-09-02T08:32:41;20.20;36.70
26035;DHT22;13809;48.632;11.576;2022-09-02T08:37:44;20.50;35.80
26035;DHT22;13809;48.632;11.576;2022-09-02T08:42:50;20.70;35.90
26035;DHT22;13809;48.632;11.576;2022-09-02T08:48:03;20.90;34.70
26035;DHT22;13809;48.632;11.576;2022-09-02T08:53:15;21.20;33.50
26035;DHT22;13809;48.632;11.576;2022-09-02T08:58:22;21.50;34.60
26035;DHT22;13809;48.632;11.576;2022-09-02T09:03:32;21.70;33.60
26035;DHT22;13809;48.632;11.576;2022-09-02T09:08:45;22.00;32.70
26035;DHT22;13809;48.632;11.576;2022-09-02T09:14:06;22.20;31.80
26035;DHT22;13809;48.632;11.576;2022-09-02T09:19:19;22.40;31.90
26035;DHT22;13809;48.632;11.576;2022-09-02T09:24:29;22.50;31.50
26035;DHT22;13809;48.632;11.576;2022-09-02T09:29:34;22.80;31.00
26035;DHT22;13809;48.632;11.576;2022-09-02T09:35:03;22.90;31.90
26035;DHT22;13809;48.632;11.576;2022-09-02T09:40:26;23.10;30.10
26035;DHT22;13809;48.632;11.576;2022-09-02T09:45:33;23.20;30.00
26035;DHT22;13809;48.632;11.576;2022-09-02T09:50:38;23.40;29.90
26035;DHT22;13809;48.632;11.576;2022-09-02T09:55:51;23.50;29.90
26035;DHT22;13809;48.632;11.576;2022-09-02T10:00:54;23.60;29.10
26035;DHT22;13809;48.632;11.576;2022-09-02T10:06:17;23.80;30.50
26035;DHT22;13809;48.632;11.576;2022-09-02T10:11:23;23.90;28.90
26035;DHT22;13809;48.632;11.576;2022-09-02T10:16:45;24.10;28.90
26035;DHT22;13809;48.632;11.576;2022-09-02T10:22:15;24.20;28.20
26035;DHT22;13809;48.632;11.576;2022-09-02T10:27:28;24.30;28.20
26035;DHT22;13809;48.632;11.576;2022-09-02T10:32:55;24.40;27.10
26035;DHT22;13809;48.632;11.576;2022-09-02T10:38:25;24.50;26.30
26035;DHT22;13809;48.632;11.576;2022-09-02T10:43:46;24.60;26.80
26035;DHT22;13809;48.632;11.576;2022-09-02T10:49:03;24.70;26.80
26035;DHT22;13809;48.632;11.576;2022-09-02T10:54:22;24.80;26.90
26035;DHT22;13809;48.632;11.576;2022-09-02T10:59:31;24.90;26.60
26035;DHT22;13809;48.632;11.576;2022-09-02T11:04:39;25.00;26.00
26035;DHT22;13809;48.632;11.576;2022-09-02T11:09:48;25.00;26.60
26035;DHT22;13809;48.632;11.576;2022-09-02T11:15:00;25.00;25.90
26035;DHT22;13809;48.632;11.576;2022-09-02T11:20:11;25.00;25.80
26035;DHT22;13809;48.632;11.576;2022-09-02T11:25:22;25.00;25.70
26035;DHT22;13809;48.632;11.576;2022-09-02T11:30:30;25.00;25.50
26035;DHT22;13809;48.632;11.576;2022-09-02T11:35:38;25.10;26.00
26035;DHT22;13809;48.632;11.576;2022-09-02T11:40:58;25.10;26.60
26035;DHT22;13809;48.632;11.576;2022-09-02T11:46:52;25.10;25.70
26035;DHT22;13809;48.632;11.576;2022-09-02T11:52:18;25.20;26.10
26035;DHT22;13809;48.632;11.576;2022-09-02T11:57:30;25.20;25.30
26035;DHT22;13809;48.632;11.576;2022-09-02T12:02:37;25.20;25.40
26035;DHT22;13809;48.632;11.576;2022-09-02T12:07:46;25.20;25.40
26035;DHT22;13809;48.632;11.576;2022-09-02T12:13:05;25.20;24.70
26035;DHT22;13809;48.632;11.576;2022-09-02T12:18:12;25.20;25.40
26035;DHT22;13809;48.632;11.576;2022-09-02T12:29:29;25.20;25.00
26035;DHT22;13809;48.632;11.576;2022-09-02T12:34:52;25.30;24.70
26035;DHT22;13809;48.632;11.576;2022-09-02T12:39:56;25.30;25.10
26035;DHT22;13809;48.632;11.576;2022-09-02T12:45:10;25.40;25.10
26035;DHT22;13809;48.632;11.576;2022-09-02T12:50:24;25.40;23.90
26035;DHT22;13809;48.632;11.576;2022-09-02T12:55:29;25.40;23.90
26035;DHT22;13809;48.632;11.576;2022-09-02T13:00:40;25.40;24.70
26035;DHT22;13809;48.632;11.576;2022-09-02T13:05:54;25.40;24.20
26035;DHT22;13809;48.632;11.576;2022-09-02T13:11:34;25.40;24.40
26035;DHT22;13809;48.632;11.576;2022-09-02T13:16:54;25.40;23.70
26035;DHT22;13809;48.632;11.576;2022-09-02T13:28:03;25.50;23.90
26035;DHT22;13809;48.632;11.576;2022-09-02T13:33:13;25.50;23.70
26035;DHT22;13809;48.632;11.576;2022-09-02T13:38:22;25.50;23.90
26035;DHT22;13809;48.632;11.576;2022-09-02T13:43:26;25.60;23.50
26035;DHT22;13809;48.632;11.576;2022-09-02T13:48:32;25.60;24.30
26035;DHT22;13809;48.632;11.576;2022-09-02T13:53:37;25.60;24.00
26035;DHT22;13809;48.632;11.576;2022-09-02T13:59:00;25.60;24.00
26035;DHT22;13809;48.632;11.576;2022-09-02T14:04:10;25.70;24.50
26035;DHT22;13809;48.632;11.576;2022-09-02T14:09:20;25.70;23.40
26035;DHT22;13809;48.632;11.576;2022-09-02T14:14:24;25.70;23.20
26035;DHT22;13809;48.632;11.576;2022-09-02T14:19:29;25.70;23.70
26035;DHT22;13809;48.632;11.576;2022-09-02T14:24:39;25.70;23.40
26035;DHT22;13809;48.632;11.576;2022-09-02T14:29:43;25.70;22.90
26035;DHT22;13809;48.632;11.576;2022-09-02T14:35:10;25.70;23.50
26035;DHT22;13809;48.632;11.576;2022-09-02T14:40:31;25.70;22.90
26035;DHT22;13809;48.632;11.576;2022-09-02T14:45:34;25.70;22.30
26035;DHT22;13809;48.632;11.576;2022-09-02T14:50:39;25.70;23.40
26035;DHT22;13809;48.632;11.576;2022-09-02T14:55:46;25.70;22.60
26035;DHT22;13809;48.632;11.576;2022-09-02T15:00:51;25.70;22.80
26035;DHT22;13809;48.632;11.576;2022-09-02T15:05:57;25.80;23.10
26035;DHT22;13809;48.632;11.576;2022-09-02T15:11:00;25.80;22.70
26035;DHT22;13809;48.632;11.576;2022-09-02T15:16:05;25.80;23.00
26035;DHT22;13809;48.632;11.576;2022-09-02T15:21:10;25.80;23.10
26035;DHT22;13809;48.632;11.576;2022-09-02T15:26:13;25.90;22.40
26035;DHT22;13809;48.632;11.576;2022-09-02T15:31:17;25.80;22.70
26035;DHT22;13809;48.632;11.576;2022-09-02T15:36:21;25.80;22.70
26035;DHT22;13809;48.632;11.576;2022-09-02T15:41:27;25.80;22.30
26035;DHT22;13809;48.632;11.576;2022-09-02T15:46:32;25.90;22.60
26035;DHT22;13809;48.632;11.576;2022-09-02T15:51:41;25.90;22.60
26035;DHT22;13809;48.632;11.576;2022-09-02T15:56:46;25.90;21.80
26035;DHT22;13809;48.632;11.576;2022-09-02T16:01:51;25.90;22.30
26035;DHT22;13809;48.632;11.576;2022-09-02T16:06:57;25.90;22.20
26035;DHT22;13809;48.632;11.576;2022-09-02T16:12:02;25.90;22.00
26035;DHT22;13809;48.632;11.576;2022-09-02T16:17:07;25.90;22.90
26035;DHT22;13809;48.632;11.576;2022-09-02T16:22:12;25.80;22.00
26035;DHT22;13809;48.632;11.576;2022-09-02T16:27:15;25.70;21.70
26035;DHT22;13809;48.632;11.576;2022-09-02T16:32:39;25.70;22.30
26035;DHT22;13809;48.632;11.576;2022-09-02T16:37:44;25.60;22.40
26035;DHT22;13809;48.632;11.576;2022-09-02T16:42:47;25.60;22.20
26035;DHT22;13809;48.632;11.576;2022-09-02T16:47:51;25.60;22.40
26035;DHT22;13809;48.632;11.576;2022-09-02T16:52:55;25.60;22.40
26035;DHT22;13809;48.632;11.576;2022-09-02T16:57:59;25.60;22.00
26035;DHT22;13809;48.632;11.576;2022-09-02T17:03:03;25.50;22.00
26035;DHT22;13809;48.632;11.576;2022-09-02T17:08:08;25.40;22.10
26035;DHT22;13809;48.632;11.576;2022-09-02T17:13:12;25.40;22.10
26035;DHT22;13809;48.632;11.576;2022-09-02T17:18:15;25.20;22.20
26035;DHT22;13809;48.632;11.576;2022-09-02T17:23:20;25.20;22.20
26035;DHT22;13809;48.632;11.576;2022-09-02T17:28:23;25.10;22.10
26035;DHT22;13809;48.632;11.576;2022-09-02T17:33:28;25.00;22.50
26035;DHT22;13809;48.632;11.576;2022-09-02T17:38:33;25.00;22.50
26035;DHT22;13809;48.632;11.576;2022-09-02T17:43:37;24.90;22.90
26035;DHT22;13809;48.632;11.576;2022-09-02T17:48:40;24.90;23.10
26035;DHT22;13809;48.632;11.576;2022-09-02T17:54:05;24.80;23.30
26035;DHT22;13809;48.632;11.576;2022-09-02T17:59:18;24.60;23.30
26035;DHT22;13809;48.632;11.576;2022-09-02T18:04:30;24.40;23.40
26035;DHT22;13809;48.632;11.576;2022-09-02T18:09:36;24.30;23.70
26035;DHT22;13809;48.632;11.576;2022-09-02T18:14:43;24.10;23.70
26035;DHT22;13809;48.632;11.576;2022-09-02T18:19:56;23.90;23.80
26035;DHT22;13809;48.632;11.576;2022-09-02T18:25:13;23.80;24.20
26035;DHT22;13809;48.632;11.576;2022-09-02T18:30:19;23.60;24.20
26035;DHT22;13809;48.632;11.576;2022-09-02T18:35:32;23.50;24.30
26035;DHT22;13809;48.632;11.576;2022-09-02T18:40:43;23.30;24.40
26035;DHT22;13809;48.632;11.576;2022-09-02T18:45:51;23.20;24.90
26035;DHT22;13809;48.632;11.576;2022-09-02T18:50:56;23.10;24.90
26035;DHT22;13809;48.632;11.576;2022-09-02T18:56:05;22.90;24.90
26035;DHT22;13809;48.632;11.576;2022-09-02T19:01:13;22.80;25.40
26035;DHT22;13809;48.632;11.576;2022-09-02T19:06:20;22.70;25.40
26035;DHT22;13809;48.632;11.576;2022-09-02T19:11:25;22.50;25.40
26035;DHT22;13809;48.632;11.576;2022-09-02T19:16:31;22.40;25.40
26035;DHT22;13809;48.632;11.576;2022-09-02T19:21:38;22.30;25.50
26035;DHT22;13809;48.632;11.576;2022-09-02T19:26:43;22.30;25.50
26035;DHT22;13809;48.632;11.576;2022-09-02T19:31:48;22.20;25.50
26035;DHT22;13809;48.632;11.576;2022-09-02T19:36:54;22.10;26.20
26035;DHT22;13809;48.632;11.576;2022-09-02T19:41:59;22.00;25.80
26035;DHT22;13809;48.632;11.576;2022-09-02T19:47:03;21.80;26.20
26035;DHT22;13809;48.632;11.576;2022-09-02T19:52:26;21.70;26.20
26035;DHT22;13809;48.632;11.576;2022-09-02T19:57:30;21.60;26.40
26035;DHT22;13809;48.632;11.576;2022-09-02T20:02:34;21.50;26.30
26035;DHT22;13809;48.632;11.576;2022-09-02T20:07:37;21.40;26.30
26035;DHT22;13809;48.632;11.576;2022-09-02T20:12:42;21.30;26.20
26035;DHT22;13809;48.632;11.576;2022-09-02T20:17:45;21.20;26.10
26035;DHT22;13809;48.632;11.576;2022-09-02T20:22:52;21.10;26.10
26035;DHT22;13809;48.632;11.576;2022-09-02T20:28:05;21.00;26.00
26035;DHT22;13809;48.632;11.576;2022-09-02T20:33:15;20.90;26.50
26035;DHT22;13809;48.632;11.576;2022-09-02T20:38:35;20.70;26.70
26035;DHT22;13809;48.632;11.576;2022-09-02T20:44:13;20.50;27.10
26035;DHT22;13809;48.632;11.576;2022-09-02T20:49:32;20.40;27.00
26035;DHT22;13809;48.632;11.576;2022-09-02T20:54:45;20.40;27.30
26035;DHT22;13809;48.632;11.576;2022-09-02T20:59:58;20.20;27.10
26035;DHT22;13809;48.632;11.576;2022-09-02T21:05:10;20.20;27.30
26035;DHT22;13809;48.632;11.576;2022-09-02T21:10:16;20.10;27.40
26035;DHT22;13809;48.632;11.576;2022-09-02T21:15:26;20.00;27.50
26035;DHT22;13809;48.632;11.576;2022-09-02T21:20:40;20.00;27.70
26035;DHT22;13809;48.632;11.576;2022-09-02T21:25:48;19.90;28.00
26035;DHT22;13809;48.632;11.576;2022-09-02T21:31:00;19.80;27.90
26035;DHT22;13809;48.632;11.576;2022-09-02T21:36:05;19.70;28.20
26035;DHT22;13809;48.632;11.576;2022-09-02T21:41:25;19.70;27.60
26035;DHT22;13809;48.632;11.576;2022-09-02T21:46:38;19.70;28.40
26035;DHT22;13809;48.632;11.576;2022-09-02T21:51:48;19.60;28.20
26035;DHT22;13809;48.632;11.576;2022-09-02T21:57:09;19.60;28.40
26035;DHT22;13809;48.632;11.576;2022-09-02T22:02:20;19.50;28.30
26035;DHT22;13809;48.632;11.576;2022-09-02T22:07:31;19.40;28.50
26035;DHT22;13809;48.632;11.576;2022-09-02T22:12:36;19.40;28.40
26035;DHT22;13809;48.632;11.576;2022-09-02T22:17:47;19.40;28.80
26035;DHT22;13809;48.632;11.576;2022-09-02T22:22:56;19.30;28.80
26035;DHT22;13809;48.632;11.576;2022-09-02T22:28:06;19.30;28.60
26035;DHT22;13809;48.632;11.576;2022-09-02T22:33:15;19.30;28.40
26035;DHT22;13809;48.632;11.576;2022-09-02T22:38:23;19.20;28.50
26035;DHT22;13809;48.632;11.576;2022-09-02T22:43:34;19.20;28.40
26035;DHT22;13809;48.632;11.576;2022-09-02T22:48:48;19.20;28.50
26035;DHT22;13809;48.632;11.576;2022-09-02T22:54:12;19.10;28.60
26035;DHT22;13809;48.632;11.576;2022-09-02T22:59:32;19.10;28.30
26035;DHT22;13809;48.632;11.576;2022-09-02T23:05:10;19.00;28.80
26035;DHT22;13809;48.632;11.576;2022-09-02T23:10:44;18.90;28.50
26035;DHT22;13809;48.632;11.576;2022-09-02T23:15:58;18.80;28.90
26035;DHT22;13809;48.632;11.576;2022-09-02T23:21:15;18.80;29.10
26035;DHT22;13809;48.632;11.576;2022-09-02T23:26:29;18.70;29.60
26035;DHT22;13809;48.632;11.576;2022-09-02T23:31:51;18.60;29.50
26035;DHT22;13809;48.632;11.576;2022-09-02T23:37:05;18.50;29.70
26035;DHT22;13809;48.632;11.576;2022-09-02T23:42:11;18.40;29.80
26035;DHT22;13809;48.632;11.576;2022-09-02T23:47:31;18.30;29.20
26035;DHT22;13809;48.632;11.576;2022-09-02T23:52:48;18.20;29.90
26035;DHT22;13809;48.632;11.576;2022-09-02T23:58:09;18.20;30.10
